Time;durP1;ratioP1;P1;durP2;ratioP2;P2;SDS_P1;SDS_P2;PMS_P1;PMS_P2;Temp;Humidity;BMP_temperature;BMP_pressure;BME280_temperature;BME280_humidity;BME280_pressure;Samples;Min_cycle;Max_cycle;Signal;HPM_P1;HPM_P2
2021/04/29 00:00:09;;;;;;;7.05;4.17;;;;;;;22.70;46.50;100636.97;1700624;82;21548;-62
2021/04/29 00:02:38;;;;;;;5.60;3.33;;;;;;;22.69;46.50;100643.66;1684969;82;21274;-62
2021/04/29 00:05:07;;;;;;;5.90;3.55;;;;;;;22.68;46.52;100641.42;1682381;84;21190;-62
2021/04/29 00:07:33;;;;;;;7.28;3.83;;;;;;;22.67;46.52;100636.20;1684480;83;22244;-62
2021/04/29 00:10:01;;;;;;;4.92;3.12;;;;;;;22.66;46.51;100635.38;1683780;84;21104;-62
2021/04/29 00:12:27;;;;;;;5.20;3.35;;;;;;;22.66;46.50;100632.61;1677810;83;21214;-62
2021/04/29 00:14:53;;;;;;;4.45;2.85;;;;;;;22.64;46.52;100633.53;1663659;85;21572;-62
2021/04/29 00:17:20;;;;;;;5.08;3.30;;;;;;;22.64;46.51;100646.58;1655463;85;21192;-62
2021/04/29 00:19:46;;;;;;;5.28;3.17;;;;;;;22.64;46.53;100632.72;1656773;85;21615;-61
2021/04/29 00:22:13;;;;;;;4.75;3.20;;;;;;;22.63;46.54;100649.11;1671135;84;21971;-62
2021/04/29 00:24:39;;;;;;;5.12;3.27;;;;;;;22.61;46.53;100661.94;1674855;84;21213;-62
2021/04/29 00:27:06;;;;;;;3.67;2.60;;;;;;;22.61;46.54;100664.72;1671822;84;21491;-62
2021/04/29 00:29:33;;;;;;;4.28;2.90;;;;;;;22.61;46.55;100656.97;1665109;84;21229;-62
2021/04/29 00:31:59;;;;;;;4.17;2.98;;;;;;;22.59;46.56;100651.75;1676078;84;21595;-62
2021/04/29 00:34:26;;;;;;;3.75;2.70;;;;;;;22.59;46.57;100664.80;1670910;84;21137;-62
2021/04/29 00:36:52;;;;;;;4.30;3.02;;;;;;;22.57;46.56;100665.15;1673432;84;21219;-62
2021/04/29 00:39:19;;;;;;;4.75;3.05;;;;;;;22.57;46.57;100667.10;1672936;84;21160;-62
2021/04/29 00:41:45;;;;;;;3.77;2.60;;;;;;;22.56;46.58;100670.45;1677063;84;21244;-62
2021/04/29 00:44:12;;;;;;;3.67;2.70;;;;;;;22.55;46.56;100664.66;1669908;84;21212;-62
2021/04/29 00:46:38;;;;;;;4.60;2.70;;;;;;;22.54;46.58;100665.80;1673036;84;21589;-62
2021/04/29 00:49:04;;;;;;;3.90;2.62;;;;;;;22.54;46.58;100660.81;1672837;83;21192;-62
2021/04/29 00:51:31;;;;;;;4.10;2.87;;;;;;;22.52;46.58;100658.40;1670193;84;21197;-62
2021/04/29 00:53:58;;;;;;;7.08;3.12;;;;;;;22.51;46.59;100651.22;1676961;84;21365;-62
2021/04/29 00:56:25;;;;;;;5.05;3.00;;;;;;;22.53;46.59;100648.91;1667206;84;21207;-62
2021/04/29 00:58:52;;;;;;;3.00;2.17;;;;;;;22.52;46.60;100654.23;1676719;84;21021;-62
2021/04/29 01:01:20;;;;;;;3.25;2.27;;;;;;;22.51;46.60;100653.17;1672763;84;21254;-62
2021/04/29 01:04:17;;;;;;;3.25;2.45;;;;;;;22.50;46.62;100655.70;1667985;84;21612;-62
2021/04/29 01:06:47;;;;;;;3.90;2.35;;;;;;;22.50;46.61;100657.09;1666563;84;21194;-62
2021/04/29 01:09:27;;;;;;;6.40;2.83;;;;;;;22.49;46.60;100652.11;1668116;84;21215;-62
2021/04/29 01:12:00;;;;;;;2.72;2.05;;;;;;;22.48;46.61;100651.90;1638995;85;21133;-62
2021/04/29 01:14:26;;;;;;;3.08;2.10;;;;;;;22.47;46.61;100647.49;1673176;84;21189;-62
2021/04/29 01:16:53;;;;;;;3.85;2.50;;;;;;;22.46;46.60;100642.27;1673827;84;21209;-62
2021/04/29 01:19:20;;;;;;;2.83;2.10;;;;;;;22.46;46.61;100643.09;1669907;84;21153;-62
2021/04/29 01:21:46;;;;;;;3.90;2.33;;;;;;;22.45;46.59;100642.05;1665549;84;21276;-62
2021/04/29 01:24:23;;;;;;;3.40;2.05;;;;;;;22.45;46.60;100640.67;1666932;84;21213;-62
2021/04/29 01:27:01;;;;;;;3.47;2.37;;;;;;;22.44;46.60;100625.99;1641640;84;21263;-62
2021/04/29 01:29:30;;;;;;;3.15;2.00;;;;;;;22.44;46.61;100622.41;1672829;84;21272;-62
2021/04/29 01:31:56;;;;;;;3.75;2.15;;;;;;;22.42;46.61;100622.73;1679722;83;21240;-62
2021/04/29 01:34:27;;;;;;;3.33;1.87;;;;;;;22.43;46.61;100637.41;1701203;82;21255;-62
2021/04/29 01:36:53;;;;;;;2.87;1.95;;;;;;;22.41;46.62;100634.95;1694298;82;21194;-62
2021/04/29 01:39:20;;;;;;;4.12;2.70;;;;;;;22.41;46.62;100628.02;1664321;84;21651;-62
2021/04/29 01:41:52;;;;;;;2.62;1.77;;;;;;;22.42;46.61;100620.52;1678349;83;21177;-62
2021/04/29 01:44:20;;;;;;;2.35;1.90;;;;;;;22.41;46.62;100624.44;1670961;84;21204;-62
2021/04/29 01:46:47;;;;;;;4.20;1.98;;;;;;;22.40;46.62;100631.97;1677468;82;21617;-62
2021/04/29 01:49:13;;;;;;;2.60;1.82;;;;;;;22.40;46.63;100645.83;1701130;82;21246;-62
2021/04/29 01:51:40;;;;;;;2.70;1.67;;;;;;;22.40;46.61;100634.73;1695697;82;21199;-62
2021/04/29 01:54:09;;;;;;;3.20;1.90;;;;;;;22.39;46.62;100624.79;1697012;82;21217;-62
2021/04/29 01:56:36;;;;;;;3.20;1.87;;;;;;;22.39;46.63;100622.02;1698996;82;21073;-62
2021/04/29 01:59:05;;;;;;;3.22;2.08;;;;;;;22.39;46.63;100631.72;1665180;84;21540;-62
2021/04/29 02:01:32;;;;;;;2.87;1.90;;;;;;;22.39;46.63;100641.98;1661134;84;21249;-62
2021/04/29 02:03:58;;;;;;;3.33;1.95;;;;;;;22.38;46.62;100639.79;1679294;84;21195;-62
2021/04/29 02:06:25;;;;;;;3.77;1.85;;;;;;;22.37;46.62;100640.92;1671879;84;21049;-62
2021/04/29 02:08:51;;;;;;;3.77;1.80;;;;;;;22.37;46.62;100646.47;1683704;83;21160;-63
2021/04/29 02:11:18;;;;;;;2.55;1.72;;;;;;;22.37;46.64;100647.86;1693212;83;21218;-62
2021/04/29 02:13:47;;;;;;;3.62;2.02;;;;;;;22.37;46.63;100642.88;1680799;84;21230;-62
2021/04/29 02:16:24;;;;;;;2.47;1.60;;;;;;;22.37;46.62;100631.80;1681085;83;21197;-62
2021/04/29 02:18:51;;;;;;;2.75;1.67;;;;;;;22.35;46.63;100635.48;1681097;83;21219;-62
2021/04/29 02:21:20;;;;;;;2.77;1.90;;;;;;;22.35;46.62;100647.96;1681147;84;21152;-62
2021/04/29 02:23:47;;;;;;;2.22;1.70;;;;;;;22.35;46.63;100643.80;1681174;84;21238;-62
2021/04/29 02:26:14;;;;;;;2.50;1.87;;;;;;;22.34;46.62;100637.44;1691178;83;21978;-62
2021/04/29 02:28:42;;;;;;;2.22;1.57;;;;;;;22.33;46.63;100637.20;1679312;84;21139;-62
2021/04/29 02:31:10;;;;;;;2.47;1.62;;;;;;;22.33;46.63;100646.89;1672203;84;21569;-62
2021/04/29 02:33:36;;;;;;;2.75;1.40;;;;;;;22.33;46.62;100646.89;1679017;83;21184;-62
2021/04/29 02:36:05;;;;;;;3.37;2.02;;;;;;;22.32;46.60;100646.08;1679145;84;21305;-62
2021/04/29 02:38:32;;;;;;;2.30;1.70;;;;;;;22.32;46.63;100649.42;1679521;84;21850;-62
2021/04/29 02:40:58;;;;;;;2.30;1.80;;;;;;;22.31;46.64;100643.66;1682791;84;21155;-61
2021/04/29 02:43:25;;;;;;;1.92;1.40;;;;;;;22.30;46.62;100649.77;1691913;83;21194;-62
2021/04/29 02:45:52;;;;;;;2.75;1.70;;;;;;;22.31;46.60;100646.44;1662750;84;21212;-62
2021/04/29 02:48:18;;;;;;;2.52;1.70;;;;;;;22.30;46.61;100656.70;1683745;84;22036;-62
2021/04/29 02:50:45;;;;;;;2.33;1.67;;;;;;;22.30;46.61;100651.73;1692097;83;21212;-62
2021/04/29 02:53:16;;;;;;;2.45;1.60;;;;;;;22.29;46.62;100654.25;1664274;84;21177;-62
2021/04/29 02:55:44;;;;;;;2.17;1.45;;;;;;;22.29;46.61;100653.69;1682804;83;22001;-62
2021/04/29 02:58:11;;;;;;;3.50;1.65;;;;;;;22.29;46.61;100655.07;1690507;83;21166;-62
2021/04/29 03:00:37;;;;;;;2.20;1.52;;;;;;;22.27;46.61;100649.63;1660944;84;21165;-62
2021/04/29 03:03:07;;;;;;;1.70;1.42;;;;;;;22.27;46.62;100649.63;1670524;84;21233;-62
2021/04/29 03:05:33;;;;;;;2.75;1.62;;;;;;;22.27;46.62;100657.95;1666208;84;21289;-62
2021/04/29 03:07:59;;;;;;;2.75;1.80;;;;;;;22.26;46.61;100657.13;1664712;84;22375;-62
2021/04/29 03:10:26;;;;;;;2.22;1.25;;;;;;;22.26;46.62;100666.02;1668983;84;21164;-62
2021/04/29 03:12:53;;;;;;;1.50;1.17;;;;;;;22.26;46.58;100664.06;1667500;84;21262;-62
2021/04/29 03:15:19;;;;;;;3.02;1.52;;;;;;;22.25;46.61;100655.50;1666273;84;21221;-62
2021/04/29 03:17:46;;;;;;;2.20;1.67;;;;;;;22.25;46.62;100661.04;1677415;84;21154;-62
2021/04/29 03:20:13;;;;;;;2.17;1.32;;;;;;;22.25;46.59;100661.61;1665963;84;21165;-62
2021/04/29 03:22:39;;;;;;;2.77;1.50;;;;;;;22.25;46.60;100649.95;1673087;84;21165;-62
2021/04/29 03:25:07;;;;;;;2.33;1.60;;;;;;;22.24;46.59;100647.50;1668500;84;21340;-62
2021/04/29 03:27:34;;;;;;;2.17;1.57;;;;;;;22.24;46.61;100658.59;1669866;84;21245;-62
2021/04/29 03:30:00;;;;;;;1.95;1.30;;;;;;;22.24;46.58;100666.91;1668828;84;21277;-63
2021/04/29 03:32:26;;;;;;;2.02;1.52;;;;;;;22.23;46.57;100666.69;1666395;84;21240;-62
2021/04/29 03:34:53;;;;;;;2.95;1.25;;;;;;;22.22;46.58;100668.64;1693299;82;21200;-62
2021/04/29 03:37:19;;;;;;;2.62;1.50;;;;;;;22.23;46.57;100666.69;1696174;82;22157;-62
2021/04/29 03:39:46;;;;;;;2.00;1.30;;;;;;;22.22;46.58;100679.73;1695373;82;21915;-62
2021/04/29 03:42:13;;;;;;;2.50;1.30;;;;;;;22.22;46.59;100685.84;1697410;82;21145;-62
2021/04/29 03:44:40;;;;;;;2.58;1.35;;;;;;;22.22;46.59;100685.84;1696552;84;21134;-62
2021/04/29 03:47:06;;;;;;;2.65;1.42;;;;;;;22.22;46.58;100684.45;1699064;82;21190;-62
2021/04/29 03:49:33;;;;;;;2.05;1.45;;;;;;;22.21;46.58;100680.86;1693380;82;22195;-62
2021/04/29 03:51:59;;;;;;;2.08;1.30;;;;;;;22.20;46.56;100684.77;1662066;84;21161;-62
2021/04/29 03:54:26;;;;;;;2.60;1.50;;;;;;;22.21;46.57;100681.43;1681238;83;21492;-63
2021/04/29 03:56:52;;;;;;;2.35;1.50;;;;;;;22.20;46.56;100687.55;1679613;83;21175;-62
2021/04/29 03:59:20;;;;;;;2.33;1.22;;;;;;;22.20;46.60;100697.81;1670949;84;21189;-62
2021/04/29 04:01:46;;;;;;;2.98;1.50;;;;;;;22.20;46.60;100703.35;1670660;83;21064;-62
2021/04/29 04:04:13;;;;;;;2.20;1.40;;;;;;;22.21;46.64;100703.60;1680220;83;21651;-61
2021/04/29 04:06:39;;;;;;;2.92;1.20;;;;;;;22.22;46.66;100699.13;1674886;84;21215;-61
2021/04/29 04:09:06;;;;;;;1.62;1.25;;;;;;;22.25;46.65;100703.17;1697498;82;21163;-61
2021/04/29 04:11:32;;;;;;;1.40;1.10;;;;;;;22.30;46.61;100703.00;1693923;82;21219;-61
2021/04/29 04:13:59;;;;;;;2.30;1.17;;;;;;;22.34;46.61;100702.58;1666756;84;21659;-61
2021/04/29 04:16:26;;;;;;;1.57;1.10;;;;;;;22.39;46.53;100703.79;1661596;84;21176;-61
2021/04/29 04:18:53;;;;;;;1.72;1.10;;;;;;;22.42;46.48;100697.58;1678071;83;21180;-61
2021/04/29 04:21:19;;;;;;;3.17;1.12;;;;;;;22.46;46.44;100696.33;1681452;83;21148;-62
2021/04/29 04:23:46;;;;;;;1.67;1.17;;;;;;;22.49;46.41;100699.25;1695977;82;21527;-61
2021/04/29 04:26:12;;;;;;;2.10;1.12;;;;;;;22.52;46.38;100697.22;1700380;82;21213;-61
2021/04/29 04:28:39;;;;;;;2.50;1.20;;;;;;;22.56;46.33;100694.02;1701520;82;21208;-61
2021/04/29 04:31:05;;;;;;;1.80;1.00;;;;;;;22.58;46.31;100690.31;1679813;83;21558;-62
2021/04/29 04:33:32;;;;;;;1.77;1.00;;;;;;;22.61;46.32;100697.17;1698936;82;21226;-61
2021/04/29 04:35:58;;;;;;;2.42;1.02;;;;;;;22.64;46.27;100707.59;1676098;83;21219;-61
2021/04/29 04:38:25;;;;;;;1.80;1.20;;;;;;;22.65;46.26;100707.27;1700238;82;21408;-62
2021/04/29 04:40:51;;;;;;;2.20;1.30;;;;;;;22.68;46.25;100713.53;1698729;82;21220;-61
2021/04/29 04:43:18;;;;;;;1.32;1.00;;;;;;;22.72;46.24;100717.86;1668175;84;21231;-62
2021/04/29 04:45:44;;;;;;;2.30;1.15;;;;;;;22.72;46.23;100713.12;1700081;82;21245;-61
2021/04/29 04:48:11;;;;;;;2.95;1.40;;;;;;;22.74;46.24;100712.80;1666295;84;21623;-61
2021/04/29 04:50:37;;;;;;;2.12;1.27;;;;;;;22.76;46.21;100716.86;1697093;82;21581;-61
2021/04/29 04:53:04;;;;;;;2.42;1.60;;;;;;;22.78;46.23;100730.97;1697671;82;21190;-61
2021/04/29 04:55:31;;;;;;;2.10;1.40;;;;;;;22.76;46.25;100730.72;1696263;82;21611;-61
2021/04/29 04:57:58;;;;;;;1.82;1.30;;;;;;;22.78;46.24;100730.41;1697226;82;21546;-62
2021/04/29 05:00:24;;;;;;;2.80;1.90;;;;;;;22.80;46.25;100735.59;1691740;82;21233;-62
2021/04/29 05:02:51;;;;;;;3.35;1.80;;;;;;;22.82;46.26;100738.86;1695302;82;21186;-62
2021/04/29 05:05:17;;;;;;;3.35;1.77;;;;;;;22.83;46.23;100741.28;1698919;82;21190;-62
2021/04/29 05:07:44;;;;;;;1.80;1.57;;;;;;;22.84;46.27;100736.55;1698997;82;21940;-61
2021/04/29 05:10:11;;;;;;;3.42;2.00;;;;;;;22.84;46.27;100729.05;1695651;82;21190;-61
2021/04/29 05:12:38;;;;;;;3.52;1.92;;;;;;;22.84;46.27;100722.68;1670892;83;21140;-61
2021/04/29 05:15:07;;;;;;;1.98;1.35;;;;;;;22.84;46.30;100726.84;1668751;83;21572;-61
2021/04/29 05:17:34;;;;;;;2.45;1.60;;;;;;;22.84;46.33;100734.59;1699359;82;21208;-61
2021/04/29 05:20:01;;;;;;;3.35;1.98;;;;;;;22.84;46.34;100740.14;1702864;82;21189;-62
2021/04/29 05:22:27;;;;;;;4.10;2.27;;;;;;;22.84;46.35;100744.30;1694170;82;21180;-61
2021/04/29 05:24:54;;;;;;;4.37;2.58;;;;;;;22.85;46.40;100740.96;1673053;83;21123;-62
2021/04/29 05:27:20;;;;;;;10.88;3.45;;;;;;;22.86;46.45;100743.41;1697435;82;22183;-61
2021/04/29 05:29:48;;;;;;;11.05;3.37;;;;;;;22.86;46.48;100741.20;1696945;82;21296;-62
2021/04/29 05:32:15;;;;;;;7.10;3.00;;;;;;;22.86;46.56;100748.14;1697593;82;21206;-62
2021/04/29 05:34:41;;;;;;;8.63;3.00;;;;;;;22.85;46.65;100752.88;1696909;82;21163;-61
2021/04/29 05:37:07;;;;;;;7.87;3.33;;;;;;;22.86;46.69;100750.91;1665467;84;21167;-62
2021/04/29 05:39:34;;;;;;;6.65;3.15;;;;;;;22.86;46.75;100746.75;1698406;82;21902;-62
2021/04/29 05:42:01;;;;;;;6.83;3.05;;;;;;;22.86;46.85;100755.08;1695985;82;21165;-61
2021/04/29 05:44:27;;;;;;;6.62;3.02;;;;;;;22.86;46.87;100751.73;1672662;83;21547;-62
2021/04/29 05:46:53;;;;;;;6.90;2.92;;;;;;;22.85;46.92;100750.09;1696989;82;21170;-61
2021/04/29 05:49:20;;;;;;;5.87;3.00;;;;;;;22.86;46.99;100746.75;1671480;84;21592;-62
2021/04/29 05:51:47;;;;;;;6.10;2.70;;;;;;;22.85;47.07;100753.44;1673710;84;21233;-61
2021/04/29 05:54:14;;;;;;;7.90;2.75;;;;;;;22.86;47.10;100750.91;1702416;82;21303;-61
2021/04/29 05:56:40;;;;;;;5.12;3.17;;;;;;;22.85;47.13;100755.65;1665400;83;21303;-62
2021/04/29 05:59:07;;;;;;;4.35;2.40;;;;;;;22.86;47.21;100754.51;1693340;82;21757;-62
2021/04/29 06:01:33;;;;;;;9.73;2.92;;;;;;;22.87;47.28;100756.71;1700336;82;21219;-62
2021/04/29 06:04:00;;;;;;;4.50;2.37;;;;;;;22.87;47.34;100746.43;1693805;82;22060;-62
2021/04/29 06:06:27;;;;;;;6.10;2.50;;;;;;;22.89;47.38;100750.23;1694785;82;21234;-61
2021/04/29 06:08:53;;;;;;;8.55;2.98;;;;;;;22.90;47.43;100739.39;1694238;82;21294;-62
2021/04/29 06:11:19;;;;;;;5.15;2.85;;;;;;;22.92;47.49;100734.30;1693602;82;21626;-61
2021/04/29 06:13:46;;;;;;;5.22;2.55;;;;;;;22.94;47.50;100748.67;1693605;82;21211;-61
2021/04/29 06:16:14;;;;;;;4.85;2.37;;;;;;;22.93;47.56;100754.78;1695401;82;21646;-62
2021/04/29 06:18:42;;;;;;;5.92;2.87;;;;;;;22.93;47.58;100764.50;1636126;85;21655;-61
2021/04/29 06:21:08;;;;;;;3.60;2.17;;;;;;;22.94;47.62;100769.48;1698353;82;21259;-61
2021/04/29 06:23:35;;;;;;;4.72;2.40;;;;;;;22.94;47.66;100770.86;1691528;82;21220;-62
2021/04/29 06:26:01;;;;;;;7.75;2.52;;;;;;;22.93;47.67;100758.95;1694626;82;21139;-62
2021/04/29 06:28:28;;;;;;;6.25;2.37;;;;;;;22.94;47.71;100762.54;1692175;82;21270;-61
2021/04/29 06:30:55;;;;;;;3.65;2.50;;;;;;;22.94;47.72;100762.54;1693730;82;21184;-62
2021/04/29 06:33:23;;;;;;;3.95;2.25;;;;;;;22.94;47.75;100769.48;1694396;82;21186;-62
2021/04/29 06:35:51;;;;;;;3.87;2.22;;;;;;;22.94;47.77;100770.30;1694191;82;21195;-62
2021/04/29 06:38:18;;;;;;;7.95;2.00;;;;;;;22.94;47.82;100770.30;1697574;82;21505;-62
2021/04/29 06:40:44;;;;;;;4.30;1.92;;;;;;;22.95;47.83;100779.44;1698153;82;22158;-62
2021/04/29 06:43:11;;;;;;;6.67;1.85;;;;;;;22.94;47.85;100777.80;1696277;82;21252;-62
2021/04/29 06:45:40;;;;;;;2.60;1.62;;;;;;;22.92;47.88;100776.73;1688547;82;21238;-62
2021/04/29 06:48:09;;;;;;;5.58;2.12;;;;;;;22.93;47.92;100782.53;1634746;85;21235;-63
2021/04/29 06:50:37;;;;;;;6.50;2.87;;;;;;;22.94;47.93;100786.13;1694814;82;21237;-62
2021/04/29 06:53:04;;;;;;;2.87;2.15;;;;;;;22.92;47.93;100785.06;1691911;82;21248;-62
2021/04/29 06:55:31;;;;;;;3.52;2.17;;;;;;;22.91;47.96;100784.84;1692597;82;21073;-63
2021/04/29 06:57:57;;;;;;;15.58;2.35;;;;;;;22.92;47.97;100789.22;1691241;82;21227;-63
2021/04/29 07:00:25;;;;;;;3.20;2.12;;;;;;;22.93;47.98;100789.47;1693822;82;21201;-62
2021/04/29 07:02:55;;;;;;;3.70;1.87;;;;;;;22.92;48.02;100790.61;1698066;82;21298;-62
2021/04/29 07:05:20;;;;;;;4.30;2.37;;;;;;;22.92;47.99;100788.41;1689530;82;21655;-62
2021/04/29 07:07:53;;;;;;;6.53;1.92;;;;;;;22.92;48.02;100787.83;1697733;82;21233;-62
2021/04/29 07:10:21;;;;;;;3.75;1.87;;;;;;;22.93;48.03;100790.86;1697784;82;21227;-62
2021/04/29 07:12:47;;;;;;;3.42;1.95;;;;;;;22.93;48.02;100782.53;1699805;82;21269;-62
2021/04/29 07:15:15;;;;;;;5.87;2.60;;;;;;;22.93;48.05;100783.92;1700664;82;21038;-62
2021/04/29 07:17:42;;;;;;;4.37;1.95;;;;;;;22.93;48.03;100779.75;1698965;82;22135;-62
2021/04/29 07:20:10;;;;;;;5.00;2.42;;;;;;;22.94;48.03;100784.73;1695668;82;21294;-62
2021/04/29 07:22:37;;;;;;;3.52;1.95;;;;;;;22.94;48.03;100777.23;1698359;82;21309;-62
2021/04/29 07:25:07;;;;;;;5.78;2.20;;;;;;;22.94;48.00;100779.19;1701331;83;21139;-62
2021/04/29 07:27:35;;;;;;;3.40;2.30;;;;;;;22.94;48.01;100786.94;1697500;82;21681;-62
2021/04/29 07:30:02;;;;;;;3.52;1.65;;;;;;;22.96;47.98;100789.36;1673523;83;21491;-62
2021/04/29 07:32:28;;;;;;;4.47;1.80;;;;;;;22.96;47.97;100797.11;1698280;82;21672;-62
2021/04/29 07:34:55;;;;;;;4.05;2.30;;;;;;;22.97;47.95;100794.59;1694856;82;21149;-62
2021/04/29 07:37:21;;;;;;;3.92;1.85;;;;;;;22.98;47.94;100789.86;1662788;84;21669;-62
2021/04/29 07:39:48;;;;;;;3.52;1.92;;;;;;;22.98;47.92;100786.51;1662418;84;21223;-62
2021/04/29 07:42:14;;;;;;;3.15;1.90;;;;;;;22.99;47.88;100793.69;1660477;84;21612;-63
2021/04/29 07:44:41;;;;;;;4.00;2.30;;;;;;;23.01;47.85;100793.34;1666421;84;21211;-63
2021/04/29 07:47:07;;;;;;;5.58;2.20;;;;;;;23.02;47.83;100796.36;1699731;82;21282;-62
2021/04/29 07:49:34;;;;;;;4.03;2.10;;;;;;;23.02;47.80;100794.97;1695769;82;21709;-62
2021/04/29 07:52:01;;;;;;;3.92;2.08;;;;;;;23.03;47.80;100800.20;1695993;82;21213;-61
2021/04/29 07:54:27;;;;;;;3.00;2.40;;;;;;;23.03;47.77;100799.38;1696670;82;22178;-61
2021/04/29 07:56:54;;;;;;;4.75;2.55;;;;;;;23.04;47.77;100805.18;1696028;82;21185;-63
2021/04/29 07:59:20;;;;;;;3.10;1.85;;;;;;;23.03;47.76;100811.88;1697732;82;21171;-62
2021/04/29 08:01:47;;;;;;;3.27;1.77;;;;;;;23.02;47.77;100808.84;1684271;83;22057;-61
2021/04/29 08:04:14;;;;;;;3.20;2.10;;;;;;;23.02;47.75;100806.08;1672812;83;21212;-63
2021/04/29 08:06:42;;;;;;;4.45;2.08;;;;;;;23.01;47.75;100804.44;1666380;83;22013;-62
2021/04/29 08:09:09;;;;;;;3.55;2.25;;;;;;;22.99;47.76;100799.24;1666801;83;21196;-61
2021/04/29 08:11:35;;;;;;;3.12;1.82;;;;;;;22.99;47.80;100802.59;1670392;83;21461;-62
2021/04/29 08:14:03;;;;;;;3.85;2.25;;;;;;;23.00;47.80;100801.45;1675347;83;21224;-61
2021/04/29 08:16:29;;;;;;;3.30;1.85;;;;;;;23.01;47.78;100803.05;1667998;83;21247;-62
2021/04/29 08:18:55;;;;;;;3.95;2.02;;;;;;;23.01;47.78;100802.48;1671934;83;22230;-61
2021/04/29 08:21:22;;;;;;;2.75;1.85;;;;;;;23.02;47.77;100804.11;1679211;83;21473;-61
2021/04/29 08:23:48;;;;;;;3.33;1.77;;;;;;;23.02;47.74;100798.56;1701212;82;21188;-62
2021/04/29 08:26:15;;;;;;;2.58;1.60;;;;;;;23.04;47.72;100800.42;1616752;84;21217;-61
2021/04/29 08:28:42;;;;;;;3.15;1.90;;;;;;;23.05;47.72;100808.17;1696507;82;21635;-62
2021/04/29 08:31:08;;;;;;;3.10;1.70;;;;;;;23.06;47.69;100809.23;1695777;82;21228;-62
2021/04/29 08:33:35;;;;;;;3.20;1.80;;;;;;;23.06;47.67;100807.84;1697019;82;21645;-62
2021/04/29 08:36:01;;;;;;;2.42;1.70;;;;;;;23.07;47.66;100815.61;1696969;82;21258;-62
2021/04/29 08:38:28;;;;;;;3.55;1.70;;;;;;;23.08;47.62;100813.08;1697391;82;22048;-62
2021/04/29 08:40:54;;;;;;;2.60;1.70;;;;;;;23.08;47.60;100817.23;1700021;82;21170;-62
2021/04/29 08:43:21;;;;;;;3.62;1.87;;;;;;;23.09;47.61;100807.74;1697168;82;21307;-62
2021/04/29 08:45:47;;;;;;;2.15;1.60;;;;;;;23.08;47.58;100809.73;1692024;82;21264;-63
2021/04/29 08:48:16;;;;;;;2.67;1.67;;;;;;;23.10;47.58;100814.36;1664745;84;21267;-62
2021/04/29 08:50:43;;;;;;;3.05;1.85;;;;;;;23.11;47.54;100814.61;1669107;84;21244;-61
2021/04/29 08:53:09;;;;;;;2.95;1.92;;;;;;;23.11;47.55;100810.44;1669844;84;21207;-62
2021/04/29 08:55:37;;;;;;;4.78;1.67;;;;;;;23.12;47.52;100804.32;1702440;82;21051;-62
2021/04/29 08:58:04;;;;;;;2.65;1.80;;;;;;;23.13;47.52;100807.31;1699467;82;21234;-62
2021/04/29 09:00:31;;;;;;;4.80;1.55;;;;;;;23.13;47.50;100800.38;1697766;82;21193;-61
2021/04/29 09:02:58;;;;;;;3.65;1.80;;;;;;;23.15;47.48;100795.31;1699399;82;21773;-62
2021/04/29 09:05:29;;;;;;;2.33;1.50;;;;;;;23.15;47.46;100804.45;1693653;82;21224;-62
2021/04/29 09:08:05;;;;;;;2.42;1.65;;;;;;;23.17;47.46;100804.92;1647770;85;21244;-61
2021/04/29 09:10:35;;;;;;;2.65;1.70;;;;;;;23.18;47.42;100796.02;1685590;83;21175;-62
2021/04/29 09:13:19;;;;;;;1.97;1.70;;;;;;;23.17;47.41;100793.00;1689337;83;21231;-62
2021/04/29 09:15:46;;;;;;;3.62;1.52;;;;;;;23.18;47.41;100798.80;1690870;83;21186;-62
2021/04/29 09:18:20;;;;;;;3.98;1.92;;;;;;;23.17;47.40;100802.72;1692528;83;21088;-62
2021/04/29 09:21:01;;;;;;;2.50;1.57;;;;;;;23.16;47.42;100790.02;1688844;83;22195;-63
2021/04/29 09:23:32;;;;;;;;;;;;;;;23.17;47.41;100787.45;1687295;83;21552;-61
2021/04/29 09:26:03;;;;;;;2.02;1.60;;;;;;;23.17;47.41;100788.27;1663370;84;20316;-61
2021/04/29 09:28:44;;;;;;;3.02;1.62;;;;;;;23.16;47.41;100789.44;1676381;84;21254;-62
2021/04/29 09:31:16;;;;;;;2.70;1.77;;;;;;;23.18;47.38;100786.31;1671234;84;21238;-61
2021/04/29 09:33:46;;;;;;;2.62;1.50;;;;;;;23.18;47.36;100782.14;1677719;84;21217;-61
2021/04/29 09:36:30;;;;;;;2.98;1.98;;;;;;;23.20;47.36;100784.02;1673638;84;21677;-61
2021/04/29 09:39:07;;;;;;;2.50;1.50;;;;;;;23.22;47.34;100780.33;1676019;84;21202;-63
2021/04/29 09:41:45;;;;;;;2.10;1.30;;;;;;;23.25;47.31;100776.90;1675859;84;21248;-63
2021/04/29 09:44:13;;;;;;;3.00;1.60;;;;;;;23.29;47.27;100782.59;1661491;84;21623;-63
2021/04/29 09:46:46;;;;;;;2.45;1.30;;;;;;;23.31;47.27;100782.48;1686619;83;22177;-62
2021/04/29 09:49:19;;;;;;;2.40;1.72;;;;;;;23.32;47.22;100781.33;1673328;84;21239;-63
2021/04/29 09:51:47;;;;;;;2.83;1.75;;;;;;;23.36;47.19;100778.69;1675923;84;21251;-62
2021/04/29 09:54:37;;;;;;;2.20;1.35;;;;;;;23.37;47.16;100775.59;1675135;84;21231;-63
2021/04/29 09:57:08;;;;;;;3.60;1.37;;;;;;;23.39;47.14;100772.45;1675094;84;21206;-61
2021/04/29 09:59:40;;;;;;;2.67;1.47;;;;;;;23.40;47.08;100776.30;1677612;84;21696;-63
2021/04/29 10:02:04;;;;;;;2.10;1.32;;;;;;;23.42;47.06;100769.84;1676669;84;21609;-62
2021/04/29 10:04:30;;;;;;;2.27;1.62;;;;;;;23.43;47.05;100770.09;1676337;84;21655;-61
2021/04/29 10:07:02;;;;;;;4.00;1.72;;;;;;;23.43;47.02;100761.76;1672861;84;21236;-62
2021/04/29 10:09:30;;;;;;;2.65;1.55;;;;;;;23.44;47.03;100764.78;1665861;84;21177;-61
2021/04/29 10:12:08;;;;;;;3.08;1.60;;;;;;;23.44;47.01;100766.17;1663300;84;21258;-62
2021/04/29 10:14:37;;;;;;;2.12;1.50;;;;;;;23.44;47.00;100768.95;1672642;84;21168;-61
2021/04/29 10:17:11;;;;;;;2.10;1.57;;;;;;;23.44;46.99;100766.17;1683007;84;21626;-62
2021/04/29 10:19:44;;;;;;;2.37;1.60;;;;;;;23.44;46.99;100763.39;1674394;84;21140;-61
2021/04/29 10:22:12;;;;;;;2.98;1.72;;;;;;;23.45;46.97;100759.47;1677681;84;21206;-62
2021/04/29 10:24:43;;;;;;;2.70;1.60;;;;;;;23.46;46.98;100758.91;1679374;84;22174;-62
2021/04/29 10:27:12;;;;;;;3.45;1.60;;;;;;;23.46;46.97;100759.72;1679368;84;21030;-62
2021/04/29 10:29:38;;;;;;;2.30;1.60;;;;;;;23.48;46.95;100760.75;1678354;83;21151;-62
2021/04/29 10:32:09;;;;;;;2.22;1.57;;;;;;;23.48;46.94;100750.45;1681945;84;21231;-62
2021/04/29 10:34:47;;;;;;;;;;;;;;;23.48;46.92;100766.30;1684299;84;21207;-62
2021/04/29 10:37:24;;;;;;;2.58;1.32;;;;;;;23.48;46.90;100760.17;1674561;84;21224;-62
2021/04/29 10:40:06;;;;;;;3.27;1.52;;;;;;;23.47;46.91;100748.83;1675338;84;21247;-62
2021/04/29 10:42:30;;;;;;;1.75;1.20;;;;;;;23.48;46.90;100745.48;1676808;84;21657;-62
2021/04/29 10:45:11;;;;;;;2.05;1.32;;;;;;;23.49;46.89;100749.89;1675627;83;21292;-62
2021/04/29 10:47:38;;;;;;;1.90;1.47;;;;;;;23.50;46.88;100754.30;1676953;84;21282;-62
2021/04/29 10:50:17;;;;;;;2.05;1.75;;;;;;;23.51;46.89;100754.52;1682725;84;21666;-62
2021/04/29 10:52:57;;;;;;;1.82;1.57;;;;;;;23.52;46.86;100747.81;1676618;84;21305;-63
2021/04/29 10:55:37;;;;;;;3.58;1.60;;;;;;;23.52;46.85;100752.80;1684084;84;21183;-63
2021/04/29 10:58:06;;;;;;;1.92;1.42;;;;;;;23.51;46.83;100751.16;1680196;83;21640;-63
2021/04/29 11:00:34;;;;;;;3.37;1.70;;;;;;;23.52;46.82;100750.59;1678369;83;21171;-63
2021/04/29 11:03:05;;;;;;;3.27;1.77;;;;;;;23.53;46.83;100749.45;1682497;84;39379;-63
2021/04/29 11:05:33;;;;;;;3.42;1.42;;;;;;;23.53;46.84;100751.65;1685659;83;21200;-64
2021/04/29 11:08:12;;;;;;;3.35;1.70;;;;;;;23.54;46.81;100744.95;1686374;83;21623;-64
2021/04/29 11:10:39;;;;;;;2.30;1.55;;;;;;;23.56;46.83;100739.86;1689435;83;21152;-63
2021/04/29 11:13:06;;;;;;;2.45;1.50;;;;;;;23.59;46.81;100743.33;1693160;83;21147;-63
2021/04/29 11:15:42;;;;;;;3.02;1.55;;;;;;;23.60;46.76;100739.41;1668849;84;21641;-63
2021/04/29 11:18:15;;;;;;;1.90;1.30;;;;;;;23.60;46.74;100736.63;1681680;84;21566;-64
2021/04/29 11:20:57;;;;;;;2.45;1.42;;;;;;;23.61;46.75;100729.13;1682654;83;21133;-61
2021/04/29 11:23:27;;;;;;;2.55;1.50;;;;;;;23.61;46.74;100728.55;1681279;84;21178;-61
2021/04/29 11:26:11;;;;;;;3.33;1.57;;;;;;;23.63;46.70;100726.83;1680664;83;21125;-61
2021/04/29 11:28:38;;;;;;;1.85;1.50;;;;;;;23.63;46.72;100724.05;1684966;84;21184;-62
2021/04/29 11:31:05;;;;;;;2.65;1.70;;;;;;;23.62;46.69;100727.41;1683746;83;21288;-62